createdAt,value
2023-03-24T00:01:03.360Z,25.20
2023-03-24T00:03:34.912Z,24.80
2023-03-24T00:06:07.759Z,21.73
2023-03-24T00:08:39.575Z,19.03
2023-03-24T00:11:13.018Z,22.80
2023-03-24T00:13:45.285Z,23.47
2023-03-24T00:16:18.272Z,22.90
2023-03-24T00:18:54.266Z,25.80
2023-03-24T00:21:26.107Z,15.17
2023-03-24T00:23:55.745Z,22.53
2023-03-24T00:26:25.236Z,18.43
2023-03-24T00:28:55.890Z,14.10
2023-03-24T00:31:25.850Z,17.10
2023-03-24T00:33:54.752Z,18.53
2023-03-24T00:36:24.521Z,18.43
2023-03-24T00:38:53.932Z,16.03
2023-03-24T00:41:25.026Z,11.93
2023-03-24T00:43:58.790Z,16.33
2023-03-24T00:46:30.663Z,13.10
2023-03-24T00:49:05.198Z,9.97
2023-03-24T00:51:37.119Z,12.20
2023-03-24T00:54:07.476Z,9.97
2023-03-24T00:56:40.994Z,11.60
2023-03-24T00:59:14.177Z,12.90
2023-03-24T01:01:43.487Z,12.17
2023-03-24T01:04:12.613Z,9.20
2023-03-24T01:06:42.340Z,11.33
2023-03-24T01:09:12.411Z,9.43
2023-03-24T01:11:42.563Z,9.43
2023-03-24T01:14:13.127Z,12.37
2023-03-24T01:16:43.686Z,10.63
2023-03-24T01:19:12.314Z,12.70
2023-03-24T01:21:42.375Z,10.03
2023-03-24T01:24:13.638Z,11.73
2023-03-24T01:26:42.288Z,9.07
2023-03-24T01:29:12.362Z,10.93
2023-03-24T01:31:41.524Z,9.77
2023-03-24T01:34:10.209Z,10.17
2023-03-24T01:36:38.912Z,11.17
2023-03-24T01:39:07.794Z,16.50
2023-03-24T01:41:37.766Z,17.60
2023-03-24T01:44:21.261Z,14.87
2023-03-24T01:46:52.564Z,18.50
2023-03-24T01:49:23.731Z,20.87
2023-03-24T01:51:58.742Z,15.30
2023-03-24T01:54:29.284Z,21.80
2023-03-24T01:56:59.280Z,21.83
2023-03-24T01:59:29.394Z,21.67
2023-03-24T02:02:03.756Z,35.00
2023-03-24T02:04:34.742Z,27.77
2023-03-24T02:07:06.697Z,25.87
2023-03-24T02:09:35.448Z,26.17
2023-03-24T02:12:04.060Z,34.43
2023-03-24T02:14:33.203Z,26.03
2023-03-24T02:17:16.296Z,29.97
2023-03-24T02:20:10.924Z,25.70
2023-03-24T02:22:58.876Z,42.27
2023-03-24T02:25:57.017Z,49.27
2023-03-24T02:28:34.016Z,40.67
2023-03-24T02:31:19.809Z,31.20
2023-03-24T02:34:15.535Z,21.83
2023-03-24T02:37:19.073Z,27.67
2023-03-24T02:40:08.666Z,33.27
2023-03-24T02:42:45.500Z,42.93
2023-03-24T02:45:22.755Z,35.60
2023-03-24T02:47:55.395Z,32.90
2023-03-24T02:50:35.327Z,36.57
2023-03-24T02:53:09.311Z,33.87
2023-03-24T02:55:44.801Z,34.70
2023-03-24T02:58:18.753Z,39.20
2023-03-24T03:00:49.305Z,39.30
2023-03-24T03:03:24.090Z,35.47
2023-03-24T03:05:58.963Z,37.97
2023-03-24T03:08:31.585Z,39.63
2023-03-24T03:11:04.026Z,38.23
2023-03-24T03:13:39.292Z,27.97
2023-03-24T03:16:12.300Z,32.40
2023-03-24T03:18:45.734Z,36.47
2023-03-24T03:21:16.124Z,33.63
2023-03-24T03:23:49.040Z,22.53
2023-03-24T03:26:20.194Z,39.43
2023-03-24T03:28:59.481Z,24.53
2023-03-24T03:31:33.110Z,27.70
2023-03-24T03:34:06.628Z,24.90
2023-03-24T03:36:36.402Z,26.53
2023-03-24T03:39:08.757Z,29.03
2023-03-24T03:41:38.048Z,32.43
2023-03-24T03:44:08.163Z,49.17
2023-03-24T03:46:37.742Z,45.37
2023-03-24T03:49:07.042Z,42.90
2023-03-24T03:51:35.933Z,31.13
2023-03-24T03:54:05.732Z,20.00
2023-03-24T03:56:36.011Z,22.43
2023-03-24T03:59:04.903Z,26.47
2023-03-24T04:01:37.448Z,27.77
2023-03-24T04:04:26.247Z,24.57
2023-03-24T04:06:59.314Z,13.47
2023-03-24T04:09:35.069Z,34.80
2023-03-24T04:12:09.639Z,29.33
2023-03-24T04:14:45.835Z,17.73
2023-03-24T04:17:21.076Z,31.13
2023-03-24T04:19:56.939Z,25.53
2023-03-24T04:22:27.915Z,19.97
2023-03-24T04:24:58.229Z,21.27
2023-03-24T04:27:29.895Z,20.10
2023-03-24T04:30:06.293Z,24.37
2023-03-24T04:32:43.437Z,17.07
2023-03-24T04:35:14.434Z,25.63
2023-03-24T04:37:43.895Z,16.60
2023-03-24T04:40:15.157Z,23.00
2023-03-24T04:42:45.447Z,20.63
2023-03-24T04:45:16.032Z,19.30
2023-03-24T04:47:50.401Z,26.53
2023-03-24T04:50:31.573Z,15.00
2023-03-24T04:53:00.983Z,27.50
2023-03-24T04:55:51.038Z,21.83
2023-03-24T04:58:23.081Z,20.67
2023-03-24T05:00:55.567Z,26.80
2023-03-24T05:03:26.124Z,27.87
2023-03-24T05:05:54.750Z,29.53
2023-03-24T05:08:23.339Z,23.60
2023-03-24T05:10:51.929Z,28.20
2023-03-24T05:13:20.595Z,19.23
2023-03-24T05:15:50.016Z,23.40
2023-03-24T05:18:21.160Z,30.83
2023-03-24T05:20:54.843Z,22.20
2023-03-24T05:23:25.318Z,12.53
2023-03-24T05:25:53.943Z,20.00
2023-03-24T05:28:22.884Z,15.67
2023-03-24T05:30:51.375Z,10.93
2023-03-24T05:33:20.060Z,16.23
2023-03-24T05:35:48.789Z,9.37
2023-03-24T05:38:19.030Z,30.33
2023-03-24T05:40:47.502Z,17.53
2023-03-24T05:43:16.343Z,15.23
2023-03-24T05:45:46.072Z,17.80
2023-03-24T05:48:15.456Z,12.13
2023-03-24T05:50:47.203Z,17.23
2023-03-24T05:53:16.494Z,19.80
2023-03-24T05:55:46.925Z,16.33
2023-03-24T05:58:16.544Z,17.73
2023-03-24T06:00:45.170Z,11.93
2023-03-24T06:03:17.352Z,17.07
2023-03-24T06:05:48.218Z,13.50
2023-03-24T06:08:17.206Z,14.00
2023-03-24T06:10:48.591Z,18.07
2023-03-24T06:13:17.127Z,10.13
2023-03-24T06:15:47.005Z,12.97
2023-03-24T06:18:18.030Z,11.93
2023-03-24T06:20:50.817Z,15.70
2023-03-24T06:23:25.116Z,13.00
2023-03-24T06:25:58.483Z,7.57
2023-03-24T06:28:30.744Z,9.37
2023-03-24T06:31:00.743Z,8.53
2023-03-24T06:33:32.014Z,11.27
2023-03-24T06:36:02.345Z,10.73
2023-03-24T06:38:32.192Z,9.23
2023-03-24T06:41:05.325Z,8.53
2023-03-24T06:43:34.552Z,7.40
2023-03-24T06:46:04.394Z,114.23
2023-03-24T06:48:34.220Z,19.40
2023-03-24T06:51:03.384Z,10.90
2023-03-24T06:53:39.183Z,21.77
2023-03-24T06:56:10.583Z,10.93
2023-03-24T06:58:42.169Z,6.80
2023-03-24T07:01:13.203Z,8.23
2023-03-24T07:03:44.471Z,4.10
2023-03-24T07:06:13.017Z,4.87
2023-03-24T07:08:41.536Z,4.93
2023-03-24T07:11:11.620Z,3.53
2023-03-24T07:13:40.094Z,3.77
2023-03-24T07:16:09.944Z,5.37
2023-03-24T07:18:41.529Z,5.97
2023-03-24T07:21:11.661Z,4.43
2023-03-24T07:23:40.716Z,5.50
2023-03-24T07:26:09.770Z,1.90
2023-03-24T07:28:41.576Z,2.37
2023-03-24T07:31:15.496Z,11.07
2023-03-24T07:33:45.635Z,6.73
2023-03-24T07:36:14.232Z,1.30
2023-03-24T07:38:42.993Z,1.27
2023-03-24T07:41:13.512Z,2.13
2023-03-24T07:43:45.224Z,6.93
2023-03-24T07:46:14.873Z,2.20
2023-03-24T07:48:44.383Z,2.83
2023-03-24T07:51:14.373Z,1.30
2023-03-24T07:53:47.603Z,1.37
2023-03-24T07:56:19.013Z,4.03
2023-03-24T07:58:51.028Z,2.23
2023-03-24T08:01:21.566Z,3.90
2023-03-24T08:03:54.961Z,2.13
2023-03-24T08:06:26.644Z,3.10
2023-03-24T08:08:55.188Z,2.67
2023-03-24T08:11:23.648Z,2.10
2023-03-24T08:13:53.816Z,4.00
2023-03-24T08:16:23.200Z,1.37
2023-03-24T08:18:52.989Z,3.77
2023-03-24T08:21:23.510Z,3.50
2023-03-24T08:23:54.920Z,6.87
2023-03-24T08:26:28.367Z,7.30
2023-03-24T08:29:00.166Z,5.77
2023-03-24T08:31:35.892Z,4.77
2023-03-24T08:34:06.797Z,3.60
2023-03-24T08:36:38.005Z,2.23
2023-03-24T08:39:09.869Z,4.50
2023-03-24T08:41:41.360Z,5.33
2023-03-24T08:44:16.201Z,5.77
2023-03-24T08:46:45.599Z,4.70
2023-03-24T08:49:16.733Z,2.70
2023-03-24T08:51:48.688Z,4.77
2023-03-24T08:54:19.321Z,2.00
2023-03-24T08:56:48.482Z,2.80
2023-03-24T08:59:21.875Z,2.50
2023-03-24T09:01:53.937Z,2.87
2023-03-24T09:04:22.667Z,4.03
2023-03-24T09:06:53.638Z,3.03
2023-03-24T09:09:22.271Z,6.53
2023-03-24T09:11:50.878Z,4.63
2023-03-24T09:14:22.233Z,2.50
2023-03-24T09:16:52.161Z,6.07
2023-03-24T09:19:23.428Z,4.07
2023-03-24T09:21:53.416Z,3.87
2023-03-24T09:24:22.199Z,4.07
2023-03-24T09:26:51.582Z,2.90
2023-03-24T09:29:22.446Z,7.23
2023-03-24T09:31:51.030Z,6.47
2023-03-24T09:34:20.370Z,3.27
2023-03-24T09:36:50.364Z,6.00
2023-03-24T09:39:20.254Z,9.70
2023-03-24T09:41:56.823Z,5.10
2023-03-24T09:44:31.909Z,4.17
2023-03-24T09:47:04.441Z,5.10
2023-03-24T09:49:37.295Z,6.47
2023-03-24T09:52:09.284Z,3.83
2023-03-24T09:54:42.607Z,4.30
2023-03-24T09:57:19.707Z,5.60
2023-03-24T09:59:51.713Z,2.97
2023-03-24T10:02:25.889Z,5.50
2023-03-24T10:04:56.256Z,4.13
2023-03-24T10:07:27.871Z,6.03
2023-03-24T10:10:00.341Z,8.17
2023-03-24T10:12:35.132Z,5.67
2023-03-24T10:15:10.877Z,4.27
2023-03-24T10:17:47.381Z,5.33
2023-03-24T10:20:23.488Z,3.83
2023-03-24T10:22:57.954Z,5.00
2023-03-24T10:25:35.198Z,5.87
2023-03-24T10:28:09.001Z,6.07
2023-03-24T10:30:44.113Z,5.43
2023-03-24T10:33:15.914Z,6.97
2023-03-24T10:35:58.948Z,5.47
2023-03-24T10:38:28.496Z,5.73
2023-03-24T10:40:57.971Z,3.50
2023-03-24T10:43:28.640Z,3.87
2023-03-24T10:46:00.791Z,3.47
2023-03-24T10:48:38.759Z,4.10
2023-03-24T10:51:08.486Z,5.07
2023-03-24T10:53:37.638Z,2.07
2023-03-24T10:56:06.431Z,2.63
2023-03-24T10:58:39.062Z,3.27
2023-03-24T11:01:12.368Z,3.27
2023-03-24T11:03:41.328Z,3.13
2023-03-24T11:06:10.108Z,2.07
2023-03-24T11:08:39.444Z,2.43
2023-03-24T11:11:29.856Z,1.37
2023-03-24T11:13:59.156Z,1.30
2023-03-24T11:16:35.272Z,1.40
2023-03-24T11:19:07.604Z,1.77
2023-03-24T11:21:39.131Z,2.57
2023-03-24T11:24:13.723Z,1.57
2023-03-24T11:26:48.233Z,3.43
2023-03-24T11:29:22.162Z,1.10
2023-03-24T11:31:57.567Z,1.00
2023-03-24T11:34:34.522Z,0.93
2023-03-24T11:37:06.636Z,0.90
2023-03-24T11:39:37.067Z,1.10
2023-03-24T11:42:10.384Z,1.30
2023-03-24T11:44:49.395Z,0.90
2023-03-24T11:47:22.422Z,0.93
2023-03-24T11:49:54.228Z,0.90
2023-03-24T11:52:28.292Z,3.43
2023-03-24T11:54:58.436Z,0.80
2023-03-24T11:57:35.887Z,0.90
2023-03-24T12:00:10.071Z,0.70
2023-03-24T12:02:50.540Z,1.03
2023-03-24T12:05:25.642Z,0.70
2023-03-24T12:08:03.663Z,0.67
2023-03-24T12:10:40.036Z,0.60
2023-03-24T12:13:22.037Z,1.50
2023-03-24T12:16:03.019Z,0.70
2023-03-24T12:18:52.683Z,0.50
2023-03-24T12:21:29.317Z,0.50
2023-03-24T12:24:00.123Z,1.50
2023-03-24T12:26:30.985Z,0.60
2023-03-24T12:29:06.656Z,0.50
2023-03-24T12:31:52.405Z,1.33
2023-03-24T12:34:35.057Z,1.70
2023-03-24T12:37:11.218Z,0.97
2023-03-24T12:39:45.524Z,0.30
2023-03-24T12:42:18.511Z,0.50
2023-03-24T12:45:06.946Z,0.50
2023-03-24T12:47:52.240Z,0.50
2023-03-24T12:50:25.617Z,0.20
2023-03-24T12:55:35.348Z,1.40
2023-03-24T12:58:07.692Z,0.40
2023-03-24T13:00:41.213Z,0.30
2023-03-24T13:03:13.518Z,0.40
2023-03-24T13:05:45.637Z,0.30
2023-03-24T13:08:18.362Z,0.80
2023-03-24T13:10:47.445Z,0.60
2023-03-24T13:13:18.320Z,0.30
2023-03-24T13:15:51.373Z,2.60
2023-03-24T13:18:31.642Z,1.80
2023-03-24T13:21:03.792Z,1.57
2023-03-24T13:23:43.087Z,1.00
2023-03-24T13:26:18.144Z,0.60
2023-03-24T13:28:53.647Z,0.50
2023-03-24T13:31:23.944Z,0.30
2023-03-24T13:33:53.828Z,0.40
2023-03-24T13:36:31.969Z,0.77
2023-03-24T13:39:05.548Z,0.50
2023-03-24T13:41:35.212Z,1.10
2023-03-24T13:44:05.036Z,0.50
2023-03-24T13:46:38.627Z,0.43
2023-03-24T13:49:09.895Z,0.57
2023-03-24T13:51:44.698Z,0.90
2023-03-24T13:54:21.349Z,0.93
2023-03-24T13:56:58.182Z,0.70
2023-03-24T13:59:28.927Z,0.80
2023-03-24T14:02:31.021Z,0.60
2023-03-24T14:05:07.191Z,0.53
2023-03-24T14:07:45.077Z,0.50
2023-03-24T14:10:31.492Z,0.70
2023-03-24T14:13:03.814Z,1.97
2023-03-24T14:15:34.903Z,1.07
2023-03-24T14:18:20.090Z,0.60
2023-03-24T14:21:02.549Z,0.50
2023-03-24T14:23:38.504Z,0.40
2023-03-24T14:26:11.051Z,0.47
2023-03-24T14:28:43.408Z,0.50
2023-03-24T14:31:15.694Z,0.50
2023-03-24T14:34:02.721Z,0.60
2023-03-24T14:36:32.870Z,0.80
2023-03-24T14:39:10.121Z,2.20
2023-03-24T14:41:44.955Z,0.70
2023-03-24T14:44:15.785Z,0.80
2023-03-24T14:46:49.244Z,0.90
2023-03-24T14:49:27.216Z,0.90
2023-03-24T14:52:01.889Z,1.50
2023-03-24T14:54:33.348Z,0.70
2023-03-24T14:57:06.768Z,0.67
2023-03-24T14:59:41.947Z,1.23
2023-03-24T15:02:26.889Z,1.30
2023-03-24T15:05:15.191Z,1.07
2023-03-24T15:07:44.306Z,0.90
2023-03-24T15:10:16.269Z,1.07
2023-03-24T15:12:47.236Z,0.67
2023-03-24T15:15:16.632Z,0.50
2023-03-24T15:17:45.595Z,0.40
2023-03-24T15:20:23.088Z,0.40
2023-03-24T15:22:55.546Z,0.37
2023-03-24T15:25:27.620Z,1.50
2023-03-24T15:28:00.584Z,0.40
2023-03-24T15:30:31.667Z,0.17
2023-03-24T15:33:02.425Z,0.20
2023-03-24T15:35:37.369Z,0.20
2023-03-24T15:38:07.176Z,0.20
2023-03-24T15:40:36.888Z,0.77
2023-03-24T15:43:09.669Z,0.63
2023-03-24T15:45:41.989Z,0.20
2023-03-24T15:48:17.698Z,0.20
2023-03-24T15:50:57.544Z,0.10
2023-03-24T15:53:27.968Z,0.20
2023-03-24T15:56:06.404Z,0.20
2023-03-24T15:58:48.584Z,0.20
2023-03-24T16:01:21.358Z,0.20
2023-03-24T16:03:52.712Z,0.30
2023-03-24T16:06:30.072Z,0.33
2023-03-24T16:09:01.149Z,0.10
2023-03-24T16:11:31.945Z,0.13
2023-03-24T16:14:04.778Z,0.53
2023-03-24T16:16:38.980Z,1.70
2023-03-24T16:19:10.813Z,0.17
2023-03-24T16:21:40.380Z,0.20
2023-03-24T16:24:10.651Z,0.20
2023-03-24T16:26:39.732Z,0.90
2023-03-24T16:29:16.780Z,0.30
2023-03-24T16:31:49.083Z,0.30
2023-03-24T16:34:18.848Z,0.50
2023-03-24T16:36:47.634Z,1.03
2023-03-24T16:39:17.187Z,0.13
2023-03-24T16:41:46.219Z,0.40
2023-03-24T16:44:17.337Z,0.30
2023-03-24T16:46:46.881Z,0.10
2023-03-24T16:49:17.067Z,0.40
2023-03-24T16:51:47.300Z,1.70
2023-03-24T16:54:16.800Z,1.40
2023-03-24T16:56:45.488Z,0.20
2023-03-24T16:59:15.052Z,0.10
2023-03-24T17:01:46.202Z,0.47
2023-03-24T17:04:16.430Z,0.20
2023-03-24T17:06:47.132Z,0.20
2023-03-24T17:09:15.718Z,0.10
2023-03-24T17:11:46.727Z,0.10
2023-03-24T17:14:15.549Z,0.00
2023-03-24T17:16:46.408Z,0.00
2023-03-24T17:19:15.796Z,0.10
2023-03-24T17:21:48.868Z,0.17
2023-03-24T17:24:17.886Z,0.10
2023-03-24T17:26:46.500Z,0.13
2023-03-24T17:29:15.521Z,0.93
2023-03-24T17:31:45.544Z,0.30
2023-03-24T17:36:46.495Z,0.30
2023-03-24T17:39:17.352Z,0.10
2023-03-24T17:41:45.867Z,0.23
2023-03-24T17:44:14.530Z,0.10
2023-03-24T17:46:43.111Z,0.20
2023-03-24T17:49:12.999Z,0.10
2023-03-24T17:51:43.697Z,0.30
2023-03-24T17:54:14.472Z,0.10
2023-03-24T17:56:43.797Z,0.10
2023-03-24T17:59:14.265Z,0.20
2023-03-24T18:01:50.046Z,0.20
2023-03-24T18:04:25.681Z,0.37
2023-03-24T18:06:55.741Z,0.27
2023-03-24T18:09:24.245Z,0.47
2023-03-24T18:11:55.662Z,1.13
2023-03-24T18:14:26.673Z,1.20
2023-03-24T18:16:59.336Z,0.40
2023-03-24T18:19:31.688Z,0.50
2023-03-24T18:22:01.912Z,0.23
2023-03-24T18:24:33.213Z,0.40
2023-03-24T18:27:04.073Z,0.77
2023-03-24T18:29:33.655Z,0.10
2023-03-24T18:32:02.647Z,0.10
2023-03-24T18:34:34.242Z,1.10
2023-03-24T18:37:03.242Z,0.07
2023-03-24T18:39:32.907Z,0.03
2023-03-24T18:42:04.762Z,0.00
2023-03-24T18:44:33.346Z,0.33
2023-03-24T18:47:01.994Z,0.00
2023-03-24T18:49:31.971Z,0.17
2023-03-24T18:52:00.574Z,0.00
2023-03-24T18:54:29.129Z,0.10
2023-03-24T18:56:58.448Z,0.00
2023-03-24T18:59:33.332Z,0.33
2023-03-24T19:02:02.895Z,0.10
2023-03-24T19:04:33.266Z,0.17
2023-03-24T19:07:08.588Z,0.10
2023-03-24T19:09:39.932Z,0.10
2023-03-24T19:12:10.815Z,0.00
2023-03-24T19:14:39.454Z,0.00
2023-03-24T19:17:07.938Z,0.00
2023-03-24T19:19:38.248Z,0.10
2023-03-24T19:22:08.325Z,0.00
2023-03-24T19:24:38.028Z,0.30
2023-03-24T19:27:10.391Z,0.10
2023-03-24T19:29:39.666Z,0.40
2023-03-24T19:32:08.172Z,0.20
2023-03-24T19:34:38.742Z,1.17
2023-03-24T19:37:10.253Z,0.07
2023-03-24T19:39:39.584Z,0.10
2023-03-24T19:42:08.128Z,0.00
2023-03-24T19:44:36.630Z,0.10
2023-03-24T19:47:05.516Z,0.87
2023-03-24T19:49:34.114Z,0.20
2023-03-24T19:52:08.604Z,0.30
2023-03-24T19:54:39.645Z,0.30
2023-03-24T19:57:09.184Z,0.30
2023-03-24T19:59:39.931Z,0.20
2023-03-24T20:02:12.245Z,0.50
2023-03-24T20:04:42.349Z,0.20
2023-03-24T20:07:14.089Z,0.10
2023-03-24T20:09:45.168Z,0.10
2023-03-24T20:12:13.765Z,0.27
2023-03-24T20:14:42.256Z,0.30
2023-03-24T20:17:13.103Z,0.77
2023-03-24T20:19:41.693Z,0.93
2023-03-24T20:22:12.334Z,1.87
2023-03-24T20:24:44.837Z,0.20
2023-03-24T20:27:13.817Z,0.40
2023-03-24T20:29:42.515Z,0.83
2023-03-24T20:32:13.791Z,0.33
2023-03-24T20:34:42.463Z,0.57
2023-03-24T20:37:12.065Z,6.40
2023-03-24T20:39:43.672Z,10.43
2023-03-24T20:42:12.560Z,0.20
2023-03-24T20:44:41.043Z,4.90
2023-03-24T20:47:09.576Z,0.70
2023-03-24T20:49:38.436Z,6.17
2023-03-24T20:52:07.619Z,2.60
2023-03-24T20:54:37.962Z,4.93
2023-03-24T20:57:09.573Z,4.40
2023-03-24T20:59:39.665Z,2.43
2023-03-24T21:02:10.092Z,1.10
2023-03-24T21:04:38.663Z,11.00
2023-03-24T21:07:07.418Z,46.13
2023-03-24T21:09:36.222Z,44.00
2023-03-24T21:12:06.607Z,49.40
2023-03-24T21:14:36.594Z,26.43
2023-03-24T21:17:05.945Z,11.80
2023-03-24T21:19:34.440Z,13.47
2023-03-24T21:22:05.376Z,6.47
2023-03-24T21:24:34.237Z,4.37
2023-03-24T21:27:02.820Z,0.40
2023-03-24T21:29:31.449Z,0.33
2023-03-24T21:32:01.383Z,0.23
2023-03-24T21:34:30.015Z,0.40
2023-03-24T21:37:01.741Z,1.90
2023-03-24T21:39:30.431Z,0.47
2023-03-24T21:41:58.895Z,6.30
2023-03-24T21:44:27.587Z,13.20
2023-03-24T21:46:56.556Z,3.30
2023-03-24T21:49:26.425Z,36.17
2023-03-24T21:51:57.583Z,77.20
2023-03-24T21:54:26.931Z,71.87
2023-03-24T21:56:56.283Z,15.40
2023-03-24T21:59:25.950Z,46.30
2023-03-24T22:01:55.230Z,43.47
2023-03-24T22:04:24.814Z,4.90
2023-03-24T22:06:56.326Z,20.60
2023-03-24T22:09:27.574Z,28.57
2023-03-24T22:11:57.423Z,28.97
2023-03-24T22:14:25.996Z,51.73
2023-03-24T22:16:54.540Z,9.87
2023-03-24T22:19:23.152Z,27.20
2023-03-24T22:22:01.833Z,4.20
2023-03-24T22:24:33.746Z,0.40
2023-03-24T22:27:05.033Z,0.60
2023-03-24T22:29:35.073Z,0.63
2023-03-24T22:32:07.888Z,0.90
2023-03-24T22:34:39.352Z,0.70
2023-03-24T22:37:11.651Z,4.57
2023-03-24T22:39:44.831Z,3.17
2023-03-24T22:42:14.050Z,6.20
2023-03-24T22:44:43.415Z,1.07
2023-03-24T22:47:15.091Z,2.03
2023-03-24T22:49:44.466Z,0.60
2023-03-24T22:52:16.308Z,0.50
2023-03-24T22:54:49.751Z,0.50
2023-03-24T22:57:19.624Z,0.63
2023-03-24T22:59:49.773Z,0.50
2023-03-24T23:02:25.363Z,0.40
2023-03-24T23:04:55.061Z,1.63
2023-03-24T23:07:28.672Z,0.30
2023-03-24T23:10:00.617Z,14.90
2023-03-24T23:12:29.624Z,0.77
2023-03-24T23:14:58.929Z,0.37
2023-03-24T23:17:27.692Z,0.40
2023-03-24T23:19:56.424Z,29.97
2023-03-24T23:22:25.407Z,3.80
2023-03-24T23:25:00.534Z,3.47
2023-03-24T23:27:37.388Z,0.30
2023-03-24T23:30:10.569Z,1.93
2023-03-24T23:32:41.686Z,0.47
2023-03-24T23:35:12.769Z,0.30
2023-03-24T23:37:42.532Z,0.50
2023-03-24T23:40:14.919Z,0.30
2023-03-24T23:42:49.151Z,5.73
2023-03-24T23:45:19.329Z,1.03
2023-03-24T23:47:52.812Z,2.83
2023-03-24T23:50:22.053Z,0.40
2023-03-24T23:52:53.983Z,0.30
2023-03-24T23:55:22.865Z,0.60
2023-03-24T23:57:56.241Z,0.60
